aviador You're here:

EPWA Decoded Metar

WARSAW in POLAND
Report Time2017-08-17 13:00:00
UTC Time2017-08-17 13:27:40
Flight Rules vfr VFR
Wind260° at 05 kt
W.Decomp.*RWY 29: 4.1 kt HW 2.9 kt LCW
RWY 33: 1.3 kt HW 4.8 kt LCW
W.Rank260° ranks 4
Current wind is below 260° avg. (7.8)
Visibility9999 m
Phenomena:N/A
Clouds:Few 033 Hf
Expected CloudBase > 2,400 ft AGL from Temp-Dew spread
CeilingNone
Temp22°C (ISA +8)
Dew Point16°C (69% RH)
QNH1021 hPa
Density Alt1,220 ft
Elevation351 ft
Report Wrong Elevation
Raw Report
EPWA 171300Z 26005KT 220V290 9999 FEW033 22/16 Q1021 NOSIG=

Extra information for EPWA:More info

Metar Taf Metar & Taf Last 4 Metars F.Rules Stats Wind Profile Meteogram Temp Stats Airport Information Weather charts Add Link Nearby VenuesMetar ALERT Operation Metar Decoded Social comments